sensor_id;sensor_type;location;lat;lon;timestamp;P1;durP1;ratioP1;P2;durP2;ratioP2
50429;SDS011;36359;41.556;-8.418;2022-09-12T00:00:12;6.20;;;2.90;;
50429;SDS011;36359;41.556;-8.418;2022-09-12T00:02:40;7.10;;;3.08;;
50429;SDS011;36359;41.556;-8.418;2022-09-12T00:05:06;6.20;;;2.67;;
50429;SDS011;36359;41.556;-8.418;2022-09-12T00:07:32;6.13;;;2.65;;
50429;SDS011;36359;41.556;-8.418;2022-09-12T00:09:58;6.63;;;2.75;;
50429;SDS011;36359;41.556;-8.418;2022-09-12T00:12:24;7.22;;;2.67;;
50429;SDS011;36359;41.556;-8.418;2022-09-12T00:14:49;8.75;;;2.83;;
50429;SDS011;36359;41.556;-8.418;2022-09-12T00:17:15;5.78;;;2.30;;
50429;SDS011;36359;41.556;-8.418;2022-09-12T00:19:41;7.05;;;2.70;;
50429;SDS011;36359;41.556;-8.418;2022-09-12T00:22:07;8.07;;;3.08;;
50429;SDS011;36359;41.556;-8.418;2022-09-12T00:24:33;4.82;;;2.60;;
50429;SDS011;36359;41.556;-8.418;2022-09-12T00:26:58;5.07;;;2.78;;
50429;SDS011;36359;41.556;-8.418;2022-09-12T00:29:24;6.90;;;2.92;;
50429;SDS011;36359;41.556;-8.418;2022-09-12T00:31:50;8.27;;;2.80;;
50429;SDS011;36359;41.556;-8.418;2022-09-12T00:34:16;4.32;;;2.33;;
50429;SDS011;36359;41.556;-8.418;2022-09-12T00:36:42;7.82;;;2.70;;
50429;SDS011;36359;41.556;-8.418;2022-09-12T00:39:07;9.68;;;3.03;;
50429;SDS011;36359;41.556;-8.418;2022-09-12T00:41:36;5.70;;;2.47;;
50429;SDS011;36359;41.556;-8.418;2022-09-12T00:49:56;9.27;;;2.50;;
50429;SDS011;36359;41.556;-8.418;2022-09-12T00:55:27;4.95;;;2.35;;
50429;SDS011;36359;41.556;-8.418;2022-09-12T00:58:00;8.40;;;3.03;;
50429;SDS011;36359;41.556;-8.418;2022-09-12T01:00:53;6.95;;;2.78;;
50429;SDS011;36359;41.556;-8.418;2022-09-12T01:03:21;7.18;;;2.83;;
50429;SDS011;36359;41.556;-8.418;2022-09-12T01:05:58;4.45;;;2.55;;
50429;SDS011;36359;41.556;-8.418;2022-09-12T01:08:37;4.82;;;2.35;;
50429;SDS011;36359;41.556;-8.418;2022-09-12T01:11:05;7.72;;;2.33;;
50429;SDS011;36359;41.556;-8.418;2022-09-12T01:13:33;7.03;;;2.22;;
50429;SDS011;36359;41.556;-8.418;2022-09-12T01:16:01;5.03;;;2.05;;
50429;SDS011;36359;41.556;-8.418;2022-09-12T01:18:31;5.97;;;2.38;;
50429;SDS011;36359;41.556;-8.418;2022-09-12T01:32:19;5.18;;;1.85;;
50429;SDS011;36359;41.556;-8.418;2022-09-12T01:54:36;3.97;;;1.70;;
50429;SDS011;36359;41.556;-8.418;2022-09-12T01:57:09;4.78;;;1.75;;
50429;SDS011;36359;41.556;-8.418;2022-09-12T01:59:58;2.85;;;1.48;;
50429;SDS011;36359;41.556;-8.418;2022-09-12T02:02:46;4.93;;;1.85;;
50429;SDS011;36359;41.556;-8.418;2022-09-12T02:05:21;4.60;;;2.08;;
50429;SDS011;36359;41.556;-8.418;2022-09-12T02:10:30;5.93;;;2.10;;
50429;SDS011;36359;41.556;-8.418;2022-09-12T02:15:33;2.80;;;1.38;;
50429;SDS011;36359;41.556;-8.418;2022-09-12T02:18:04;7.50;;;1.70;;
50429;SDS011;36359;41.556;-8.418;2022-09-12T02:20:34;3.97;;;1.80;;
50429;SDS011;36359;41.556;-8.418;2022-09-12T02:23:03;3.03;;;1.60;;
50429;SDS011;36359;41.556;-8.418;2022-09-12T02:25:33;2.70;;;1.95;;
50429;SDS011;36359;41.556;-8.418;2022-09-12T02:28:12;3.45;;;1.50;;
50429;SDS011;36359;41.556;-8.418;2022-09-12T02:30:55;4.38;;;1.58;;
50429;SDS011;36359;41.556;-8.418;2022-09-12T02:33:53;8.10;;;4.97;;
50429;SDS011;36359;41.556;-8.418;2022-09-12T02:39:43;6.10;;;2.58;;
50429;SDS011;36359;41.556;-8.418;2022-09-12T02:42:09;5.00;;;1.75;;
50429;SDS011;36359;41.556;-8.418;2022-09-12T02:44:35;7.10;;;3.17;;
50429;SDS011;36359;41.556;-8.418;2022-09-12T02:47:03;6.25;;;3.22;;
50429;SDS011;36359;41.556;-8.418;2022-09-12T02:49:34;6.78;;;3.30;;
50429;SDS011;36359;41.556;-8.418;2022-09-12T02:52:00;4.53;;;2.03;;
50429;SDS011;36359;41.556;-8.418;2022-09-12T02:54:26;5.25;;;2.88;;
50429;SDS011;36359;41.556;-8.418;2022-09-12T02:56:52;6.43;;;2.20;;
50429;SDS011;36359;41.556;-8.418;2022-09-12T02:59:18;3.75;;;1.92;;
50429;SDS011;36359;41.556;-8.418;2022-09-12T03:05:29;5.10;;;2.00;;
50429;SDS011;36359;41.556;-8.418;2022-09-12T03:10:32;2.38;;;1.42;;
50429;SDS011;36359;41.556;-8.418;2022-09-12T03:15:40;9.35;;;6.57;;
50429;SDS011;36359;41.556;-8.418;2022-09-12T03:21:36;7.80;;;5.65;;
50429;SDS011;36359;41.556;-8.418;2022-09-12T03:24:31;6.03;;;4.60;;
50429;SDS011;36359;41.556;-8.418;2022-09-12T03:28:01;5.25;;;2.60;;
50429;SDS011;36359;41.556;-8.418;2022-09-12T03:30:11;3.65;;;2.33;;
50429;SDS011;36359;41.556;-8.418;2022-09-12T03:32:46;3.53;;;1.67;;
50429;SDS011;36359;41.556;-8.418;2022-09-12T03:35:14;3.75;;;1.83;;
50429;SDS011;36359;41.556;-8.418;2022-09-12T03:37:41;4.55;;;2.75;;
50429;SDS011;36359;41.556;-8.418;2022-09-12T03:40:07;4.50;;;1.90;;
50429;SDS011;36359;41.556;-8.418;2022-09-12T03:42:36;3.60;;;1.92;;
50429;SDS011;36359;41.556;-8.418;2022-09-12T03:45:02;3.30;;;1.75;;
50429;SDS011;36359;41.556;-8.418;2022-09-12T03:47:28;5.80;;;2.10;;
50429;SDS011;36359;41.556;-8.418;2022-09-12T03:49:54;3.70;;;1.50;;
50429;SDS011;36359;41.556;-8.418;2022-09-12T03:52:20;4.70;;;1.60;;
50429;SDS011;36359;41.556;-8.418;2022-09-12T03:54:46;4.47;;;2.20;;
50429;SDS011;36359;41.556;-8.418;2022-09-12T03:57:13;5.47;;;1.58;;
50429;SDS011;36359;41.556;-8.418;2022-09-12T03:59:39;4.50;;;1.40;;
50429;SDS011;36359;41.556;-8.418;2022-09-12T04:02:05;3.25;;;1.40;;
50429;SDS011;36359;41.556;-8.418;2022-09-12T04:04:30;3.25;;;2.10;;
50429;SDS011;36359;41.556;-8.418;2022-09-12T04:06:56;4.68;;;2.10;;
50429;SDS011;36359;41.556;-8.418;2022-09-12T04:09:22;3.83;;;1.17;;
50429;SDS011;36359;41.556;-8.418;2022-09-12T04:11:48;4.15;;;1.52;;
50429;SDS011;36359;41.556;-8.418;2022-09-12T04:14:14;4.10;;;1.25;;
50429;SDS011;36359;41.556;-8.418;2022-09-12T04:19:12;4.88;;;2.17;;
50429;SDS011;36359;41.556;-8.418;2022-09-12T04:21:37;3.00;;;1.95;;
50429;SDS011;36359;41.556;-8.418;2022-09-12T04:24:04;3.30;;;1.90;;
50429;SDS011;36359;41.556;-8.418;2022-09-12T04:26:30;3.83;;;1.65;;
50429;SDS011;36359;41.556;-8.418;2022-09-12T04:28:56;3.40;;;1.92;;
50429;SDS011;36359;41.556;-8.418;2022-09-12T04:31:22;5.68;;;1.75;;
50429;SDS011;36359;41.556;-8.418;2022-09-12T04:33:53;4.85;;;2.08;;
50429;SDS011;36359;41.556;-8.418;2022-09-12T04:36:20;4.07;;;2.00;;
50429;SDS011;36359;41.556;-8.418;2022-09-12T04:38:47;3.38;;;1.85;;
50429;SDS011;36359;41.556;-8.418;2022-09-12T04:41:24;3.65;;;1.95;;
50429;SDS011;36359;41.556;-8.418;2022-09-12T04:43:53;3.97;;;1.52;;
50429;SDS011;36359;41.556;-8.418;2022-09-12T04:46:20;4.00;;;1.52;;
50429;SDS011;36359;41.556;-8.418;2022-09-12T04:48:46;5.40;;;1.80;;
50429;SDS011;36359;41.556;-8.418;2022-09-12T04:51:17;4.53;;;1.88;;
50429;SDS011;36359;41.556;-8.418;2022-09-12T04:53:47;5.53;;;2.33;;
50429;SDS011;36359;41.556;-8.418;2022-09-12T04:56:15;5.57;;;2.83;;
50429;SDS011;36359;41.556;-8.418;2022-09-12T04:58:41;6.68;;;3.70;;
50429;SDS011;36359;41.556;-8.418;2022-09-12T05:01:08;2.55;;;1.95;;
50429;SDS011;36359;41.556;-8.418;2022-09-12T05:03:33;3.15;;;1.50;;
50429;SDS011;36359;41.556;-8.418;2022-09-12T05:06:03;2.85;;;1.50;;
50429;SDS011;36359;41.556;-8.418;2022-09-12T05:08:33;3.55;;;1.80;;
50429;SDS011;36359;41.556;-8.418;2022-09-12T05:11:05;5.95;;;3.05;;
50429;SDS011;36359;41.556;-8.418;2022-09-12T05:13:33;14.45;;;11.90;;
50429;SDS011;36359;41.556;-8.418;2022-09-12T05:16:00;7.53;;;5.25;;
50429;SDS011;36359;41.556;-8.418;2022-09-12T05:18:29;5.13;;;3.20;;
50429;SDS011;36359;41.556;-8.418;2022-09-12T05:21:00;6.65;;;1.33;;
50429;SDS011;36359;41.556;-8.418;2022-09-12T05:23:28;5.57;;;2.00;;
50429;SDS011;36359;41.556;-8.418;2022-09-12T05:25:55;7.03;;;1.73;;
50429;SDS011;36359;41.556;-8.418;2022-09-12T05:28:22;4.00;;;1.33;;
50429;SDS011;36359;41.556;-8.418;2022-09-12T05:33:30;4.05;;;1.30;;
50429;SDS011;36359;41.556;-8.418;2022-09-12T05:35:56;3.92;;;1.40;;
50429;SDS011;36359;41.556;-8.418;2022-09-12T05:38:23;6.65;;;1.40;;
50429;SDS011;36359;41.556;-8.418;2022-09-12T05:40:49;4.35;;;2.10;;
50429;SDS011;36359;41.556;-8.418;2022-09-12T05:43:15;4.78;;;1.55;;
50429;SDS011;36359;41.556;-8.418;2022-09-12T05:45:41;4.93;;;2.45;;
50429;SDS011;36359;41.556;-8.418;2022-09-12T05:48:07;3.80;;;2.30;;
50429;SDS011;36359;41.556;-8.418;2022-09-12T05:50:33;4.57;;;1.58;;
50429;SDS011;36359;41.556;-8.418;2022-09-12T05:52:59;5.97;;;2.42;;
50429;SDS011;36359;41.556;-8.418;2022-09-12T05:55:25;6.45;;;3.15;;
50429;SDS011;36359;41.556;-8.418;2022-09-12T05:57:51;8.95;;;4.75;;
50429;SDS011;36359;41.556;-8.418;2022-09-12T06:00:17;8.10;;;5.25;;
50429;SDS011;36359;41.556;-8.418;2022-09-12T06:02:50;4.85;;;2.78;;
50429;SDS011;36359;41.556;-8.418;2022-09-12T06:05:17;7.47;;;4.80;;
50429;SDS011;36359;41.556;-8.418;2022-09-12T06:07:46;6.70;;;4.38;;
50429;SDS011;36359;41.556;-8.418;2022-09-12T06:10:13;4.43;;;2.53;;
50429;SDS011;36359;41.556;-8.418;2022-09-12T06:12:40;5.43;;;1.80;;
50429;SDS011;36359;41.556;-8.418;2022-09-12T06:15:06;3.80;;;2.15;;
50429;SDS011;36359;41.556;-8.418;2022-09-12T06:17:32;6.20;;;1.40;;
50429;SDS011;36359;41.556;-8.418;2022-09-12T06:19:58;5.03;;;2.35;;
50429;SDS011;36359;41.556;-8.418;2022-09-12T06:22:24;3.38;;;1.70;;
50429;SDS011;36359;41.556;-8.418;2022-09-12T06:24:49;7.95;;;1.90;;
50429;SDS011;36359;41.556;-8.418;2022-09-12T06:27:15;3.78;;;2.10;;
50429;SDS011;36359;41.556;-8.418;2022-09-12T06:29:41;4.07;;;1.20;;
50429;SDS011;36359;41.556;-8.418;2022-09-12T06:32:06;5.40;;;1.55;;
50429;SDS011;36359;41.556;-8.418;2022-09-12T06:34:34;5.80;;;1.85;;
50429;SDS011;36359;41.556;-8.418;2022-09-12T06:37:00;6.47;;;2.17;;
50429;SDS011;36359;41.556;-8.418;2022-09-12T06:39:28;3.95;;;1.08;;
50429;SDS011;36359;41.556;-8.418;2022-09-12T06:41:55;4.30;;;1.10;;
50429;SDS011;36359;41.556;-8.418;2022-09-12T06:44:31;4.28;;;2.05;;
50429;SDS011;36359;41.556;-8.418;2022-09-12T06:46:57;5.03;;;1.48;;
50429;SDS011;36359;41.556;-8.418;2022-09-12T06:49:23;3.85;;;1.67;;
50429;SDS011;36359;41.556;-8.418;2022-09-12T06:51:49;3.60;;;2.03;;
50429;SDS011;36359;41.556;-8.418;2022-09-12T06:54:14;6.13;;;1.92;;
50429;SDS011;36359;41.556;-8.418;2022-09-12T06:56:44;4.50;;;1.52;;
50429;SDS011;36359;41.556;-8.418;2022-09-12T06:59:09;5.93;;;1.40;;
50429;SDS011;36359;41.556;-8.418;2022-09-12T07:01:35;5.85;;;2.10;;
50429;SDS011;36359;41.556;-8.418;2022-09-12T07:04:02;8.10;;;3.28;;
50429;SDS011;36359;41.556;-8.418;2022-09-12T07:06:29;7.40;;;3.10;;
50429;SDS011;36359;41.556;-8.418;2022-09-12T07:09:00;6.63;;;1.55;;
50429;SDS011;36359;41.556;-8.418;2022-09-12T07:11:28;8.93;;;3.13;;
50429;SDS011;36359;41.556;-8.418;2022-09-12T07:14:06;10.07;;;4.82;;
50429;SDS011;36359;41.556;-8.418;2022-09-12T07:16:34;5.85;;;3.05;;
50429;SDS011;36359;41.556;-8.418;2022-09-12T07:19:01;14.80;;;5.32;;
50429;SDS011;36359;41.556;-8.418;2022-09-12T07:21:28;8.75;;;4.00;;
50429;SDS011;36359;41.556;-8.418;2022-09-12T07:23:55;9.75;;;4.00;;
50429;SDS011;36359;41.556;-8.418;2022-09-12T07:26:22;7.07;;;2.67;;
50429;SDS011;36359;41.556;-8.418;2022-09-12T07:28:50;5.10;;;2.85;;
50429;SDS011;36359;41.556;-8.418;2022-09-12T07:31:18;10.45;;;2.83;;
50429;SDS011;36359;41.556;-8.418;2022-09-12T07:33:45;4.75;;;2.22;;
50429;SDS011;36359;41.556;-8.418;2022-09-12T07:36:15;6.22;;;2.25;;
50429;SDS011;36359;41.556;-8.418;2022-09-12T07:38:42;5.93;;;2.10;;
50429;SDS011;36359;41.556;-8.418;2022-09-12T07:41:09;9.27;;;2.28;;
50429;SDS011;36359;41.556;-8.418;2022-09-12T07:43:36;3.42;;;2.28;;
50429;SDS011;36359;41.556;-8.418;2022-09-12T07:46:02;6.00;;;2.25;;
50429;SDS011;36359;41.556;-8.418;2022-09-12T07:48:27;6.32;;;2.20;;
50429;SDS011;36359;41.556;-8.418;2022-09-12T07:50:57;6.35;;;2.10;;
50429;SDS011;36359;41.556;-8.418;2022-09-12T07:53:29;3.08;;;1.73;;
50429;SDS011;36359;41.556;-8.418;2022-09-12T07:55:57;4.18;;;2.20;;
50429;SDS011;36359;41.556;-8.418;2022-09-12T07:58:23;5.15;;;2.08;;
50429;SDS011;36359;41.556;-8.418;2022-09-12T08:00:49;3.95;;;1.88;;
50429;SDS011;36359;41.556;-8.418;2022-09-12T08:03:15;5.10;;;1.98;;
50429;SDS011;36359;41.556;-8.418;2022-09-12T08:05:41;4.25;;;2.28;;
50429;SDS011;36359;41.556;-8.418;2022-09-12T08:08:06;5.22;;;2.47;;
50429;SDS011;36359;41.556;-8.418;2022-09-12T08:10:32;9.60;;;3.95;;
50429;SDS011;36359;41.556;-8.418;2022-09-12T08:12:58;4.38;;;1.98;;
50429;SDS011;36359;41.556;-8.418;2022-09-12T08:15:24;6.00;;;2.80;;
50429;SDS011;36359;41.556;-8.418;2022-09-12T08:17:49;5.90;;;2.72;;
50429;SDS011;36359;41.556;-8.418;2022-09-12T08:20:15;5.95;;;3.03;;
50429;SDS011;36359;41.556;-8.418;2022-09-12T08:22:42;5.43;;;2.50;;
50429;SDS011;36359;41.556;-8.418;2022-09-12T08:25:08;8.52;;;4.40;;
50429;SDS011;36359;41.556;-8.418;2022-09-12T08:27:34;6.93;;;3.78;;
50429;SDS011;36359;41.556;-8.418;2022-09-12T08:30:00;13.55;;;6.05;;
50429;SDS011;36359;41.556;-8.418;2022-09-12T08:32:26;9.10;;;5.47;;
50429;SDS011;36359;41.556;-8.418;2022-09-12T08:34:52;11.50;;;5.38;;
50429;SDS011;36359;41.556;-8.418;2022-09-12T08:37:18;9.02;;;4.45;;
50429;SDS011;36359;41.556;-8.418;2022-09-12T08:39:44;4.45;;;2.53;;
50429;SDS011;36359;41.556;-8.418;2022-09-12T08:42:09;9.82;;;3.85;;
50429;SDS011;36359;41.556;-8.418;2022-09-12T08:47:34;12.23;;;5.40;;
50429;SDS011;36359;41.556;-8.418;2022-09-12T08:57:48;9.85;;;4.88;;
50429;SDS011;36359;41.556;-8.418;2022-09-12T09:00:15;6.95;;;3.63;;
50429;SDS011;36359;41.556;-8.418;2022-09-12T09:11:17;41.55;;;18.20;;
50429;SDS011;36359;41.556;-8.418;2022-09-12T09:14:17;16.35;;;10.23;;
50429;SDS011;36359;41.556;-8.418;2022-09-12T09:17:18;15.73;;;6.75;;
50429;SDS011;36359;41.556;-8.418;2022-09-12T09:19:48;21.58;;;10.25;;
50429;SDS011;36359;41.556;-8.418;2022-09-12T09:25:20;7.32;;;3.40;;
50429;SDS011;36359;41.556;-8.418;2022-09-12T09:30:43;12.45;;;3.85;;
50429;SDS011;36359;41.556;-8.418;2022-09-12T09:33:14;6.65;;;3.65;;
50429;SDS011;36359;41.556;-8.418;2022-09-12T09:35:47;10.80;;;3.67;;
50429;SDS011;36359;41.556;-8.418;2022-09-12T09:43:27;7.50;;;3.45;;
50429;SDS011;36359;41.556;-8.418;2022-09-12T09:45:53;7.88;;;3.70;;
50429;SDS011;36359;41.556;-8.418;2022-09-12T09:48:22;9.90;;;3.17;;
50429;SDS011;36359;41.556;-8.418;2022-09-12T09:50:52;8.27;;;3.42;;
50429;SDS011;36359;41.556;-8.418;2022-09-12T09:53:24;6.07;;;2.85;;
50429;SDS011;36359;41.556;-8.418;2022-09-12T09:55:50;6.70;;;3.70;;
50429;SDS011;36359;41.556;-8.418;2022-09-12T09:58:29;9.15;;;2.63;;
50429;SDS011;36359;41.556;-8.418;2022-09-12T10:01:00;7.55;;;2.50;;
50429;SDS011;36359;41.556;-8.418;2022-09-12T10:03:28;7.03;;;2.63;;
50429;SDS011;36359;41.556;-8.418;2022-09-12T10:06:01;7.20;;;2.15;;
50429;SDS011;36359;41.556;-8.418;2022-09-12T10:08:46;5.63;;;3.03;;
50429;SDS011;36359;41.556;-8.418;2022-09-12T10:11:17;7.65;;;2.50;;
50429;SDS011;36359;41.556;-8.418;2022-09-12T10:13:54;6.90;;;3.17;;
50429;SDS011;36359;41.556;-8.418;2022-09-12T10:16:23;6.93;;;2.72;;
50429;SDS011;36359;41.556;-8.418;2022-09-12T10:26:41;5.28;;;2.70;;
50429;SDS011;36359;41.556;-8.418;2022-09-12T10:29:20;6.55;;;2.47;;
50429;SDS011;36359;41.556;-8.418;2022-09-12T10:31:51;8.40;;;2.50;;
50429;SDS011;36359;41.556;-8.418;2022-09-12T10:34:23;4.40;;;2.80;;
50429;SDS011;36359;41.556;-8.418;2022-09-12T10:36:58;6.00;;;3.03;;
50429;SDS011;36359;41.556;-8.418;2022-09-12T10:42:17;6.78;;;2.55;;
50429;SDS011;36359;41.556;-8.418;2022-09-12T10:47:56;7.03;;;2.92;;
50429;SDS011;36359;41.556;-8.418;2022-09-12T10:53:13;5.03;;;2.78;;
50429;SDS011;36359;41.556;-8.418;2022-09-12T11:01:15;6.45;;;2.30;;
50429;SDS011;36359;41.556;-8.418;2022-09-12T11:04:40;4.75;;;2.08;;
50429;SDS011;36359;41.556;-8.418;2022-09-12T11:06:57;5.10;;;2.17;;
50429;SDS011;36359;41.556;-8.418;2022-09-12T11:09:43;8.52;;;2.38;;
50429;SDS011;36359;41.556;-8.418;2022-09-12T11:28:33;4.68;;;2.22;;
50429;SDS011;36359;41.556;-8.418;2022-09-12T11:34:10;2.97;;;1.15;;
50429;SDS011;36359;41.556;-8.418;2022-09-12T11:39:47;3.80;;;1.20;;
50429;SDS011;36359;41.556;-8.418;2022-09-12T11:42:19;4.60;;;1.70;;
50429;SDS011;36359;41.556;-8.418;2022-09-12T11:45:06;3.53;;;0.88;;
50429;SDS011;36359;41.556;-8.418;2022-09-12T11:47:39;2.20;;;1.05;;
50429;SDS011;36359;41.556;-8.418;2022-09-12T11:50:19;6.07;;;1.05;;
50429;SDS011;36359;41.556;-8.418;2022-09-12T11:52:50;2.85;;;0.90;;
50429;SDS011;36359;41.556;-8.418;2022-09-12T11:55:21;2.15;;;0.80;;
50429;SDS011;36359;41.556;-8.418;2022-09-12T11:57:55;2.13;;;0.90;;
50429;SDS011;36359;41.556;-8.418;2022-09-12T12:00:43;2.63;;;1.27;;
50429;SDS011;36359;41.556;-8.418;2022-09-12T12:03:31;2.22;;;0.70;;
50429;SDS011;36359;41.556;-8.418;2022-09-12T12:08:46;2.65;;;1.05;;
50429;SDS011;36359;41.556;-8.418;2022-09-12T12:14:13;2.38;;;0.88;;
50429;SDS011;36359;41.556;-8.418;2022-09-12T12:16:40;2.08;;;0.70;;
50429;SDS011;36359;41.556;-8.418;2022-09-12T12:21:42;2.60;;;0.70;;
50429;SDS011;36359;41.556;-8.418;2022-09-12T12:24:21;1.55;;;0.45;;
50429;SDS011;36359;41.556;-8.418;2022-09-12T12:34:29;2.25;;;0.80;;
50429;SDS011;36359;41.556;-8.418;2022-09-12T12:44:58;2.17;;;0.70;;
50429;SDS011;36359;41.556;-8.418;2022-09-12T12:47:25;2.55;;;0.77;;
50429;SDS011;36359;41.556;-8.418;2022-09-12T12:52:24;1.35;;;0.70;;
50429;SDS011;36359;41.556;-8.418;2022-09-12T12:54:55;3.28;;;0.65;;
50429;SDS011;36359;41.556;-8.418;2022-09-12T12:57:27;2.40;;;1.00;;
50429;SDS011;36359;41.556;-8.418;2022-09-12T13:00:03;3.05;;;0.80;;
50429;SDS011;36359;41.556;-8.418;2022-09-12T13:02:40;3.40;;;1.10;;
50429;SDS011;36359;41.556;-8.418;2022-09-12T13:05:16;1.92;;;0.90;;
50429;SDS011;36359;41.556;-8.418;2022-09-12T13:07:45;2.30;;;0.77;;
50429;SDS011;36359;41.556;-8.418;2022-09-12T13:10:35;3.25;;;0.70;;
50429;SDS011;36359;41.556;-8.418;2022-09-12T13:13:03;2.88;;;0.90;;
50429;SDS011;36359;41.556;-8.418;2022-09-12T13:18:01;5.10;;;1.00;;
50429;SDS011;36359;41.556;-8.418;2022-09-12T13:20:35;5.45;;;1.00;;
50429;SDS011;36359;41.556;-8.418;2022-09-12T13:23:27;2.25;;;0.80;;
50429;SDS011;36359;41.556;-8.418;2022-09-12T13:25:55;3.33;;;1.17;;
50429;SDS011;36359;41.556;-8.418;2022-09-12T13:28:23;1.98;;;0.85;;
50429;SDS011;36359;41.556;-8.418;2022-09-12T13:30:55;4.68;;;1.15;;
50429;SDS011;36359;41.556;-8.418;2022-09-12T13:39:28;1.40;;;0.63;;
50429;SDS011;36359;41.556;-8.418;2022-09-12T13:44:46;5.63;;;0.60;;
50429;SDS011;36359;41.556;-8.418;2022-09-12T13:47:26;4.00;;;1.10;;
50429;SDS011;36359;41.556;-8.418;2022-09-12T13:52:24;4.00;;;0.75;;
50429;SDS011;36359;41.556;-8.418;2022-09-12T13:54:55;3.95;;;1.00;;
50429;SDS011;36359;41.556;-8.418;2022-09-12T13:59:55;2.20;;;0.95;;
50429;SDS011;36359;41.556;-8.418;2022-09-12T14:02:23;4.07;;;1.17;;
50429;SDS011;36359;41.556;-8.418;2022-09-12T14:04:52;6.85;;;1.10;;
50429;SDS011;36359;41.556;-8.418;2022-09-12T14:13:04;3.45;;;0.90;;
50429;SDS011;36359;41.556;-8.418;2022-09-12T14:15:37;2.45;;;0.70;;
50429;SDS011;36359;41.556;-8.418;2022-09-12T14:18:05;3.72;;;0.82;;
50429;SDS011;36359;41.556;-8.418;2022-09-12T14:20:36;2.38;;;0.90;;
50429;SDS011;36359;41.556;-8.418;2022-09-12T14:25:52;2.75;;;0.80;;
50429;SDS011;36359;41.556;-8.418;2022-09-12T14:28:20;4.95;;;0.98;;
50429;SDS011;36359;41.556;-8.418;2022-09-12T14:31:01;5.30;;;1.08;;
50429;SDS011;36359;41.556;-8.418;2022-09-12T14:33:52;2.10;;;1.17;;
50429;SDS011;36359;41.556;-8.418;2022-09-12T14:39:16;2.13;;;0.90;;
50429;SDS011;36359;41.556;-8.418;2022-09-12T14:42:00;2.08;;;0.88;;
50429;SDS011;36359;41.556;-8.418;2022-09-12T14:44:30;8.27;;;1.60;;
50429;SDS011;36359;41.556;-8.418;2022-09-12T14:46:59;8.30;;;2.78;;
50429;SDS011;36359;41.556;-8.418;2022-09-12T14:49:35;6.13;;;2.33;;
50429;SDS011;36359;41.556;-8.418;2022-09-12T14:52:06;8.20;;;1.80;;
50429;SDS011;36359;41.556;-8.418;2022-09-12T14:55:02;5.93;;;2.10;;
50429;SDS011;36359;41.556;-8.418;2022-09-12T14:57:44;7.00;;;2.47;;
50429;SDS011;36359;41.556;-8.418;2022-09-12T15:02:36;1.88;;;0.90;;
50429;SDS011;36359;41.556;-8.418;2022-09-12T15:07:34;9.48;;;3.15;;
50429;SDS011;36359;41.556;-8.418;2022-09-12T15:10:05;11.10;;;4.10;;
50429;SDS011;36359;41.556;-8.418;2022-09-12T15:15:30;6.30;;;2.97;;
50429;SDS011;36359;41.556;-8.418;2022-09-12T15:17:56;5.72;;;3.67;;
50429;SDS011;36359;41.556;-8.418;2022-09-12T15:20:23;5.28;;;2.30;;
50429;SDS011;36359;41.556;-8.418;2022-09-12T15:22:49;3.22;;;1.45;;
50429;SDS011;36359;41.556;-8.418;2022-09-12T15:25:15;5.32;;;2.38;;
50429;SDS011;36359;41.556;-8.418;2022-09-12T15:27:42;2.75;;;1.80;;
50429;SDS011;36359;41.556;-8.418;2022-09-12T15:30:10;5.10;;;2.83;;
50429;SDS011;36359;41.556;-8.418;2022-09-12T15:32:37;5.10;;;1.60;;
50429;SDS011;36359;41.556;-8.418;2022-09-12T15:37:42;4.68;;;2.40;;
50429;SDS011;36359;41.556;-8.418;2022-09-12T15:40:09;5.88;;;2.03;;
50429;SDS011;36359;41.556;-8.418;2022-09-12T15:42:36;5.40;;;2.35;;
50429;SDS011;36359;41.556;-8.418;2022-09-12T15:45:01;6.30;;;2.40;;
50429;SDS011;36359;41.556;-8.418;2022-09-12T15:47:45;5.00;;;2.35;;
50429;SDS011;36359;41.556;-8.418;2022-09-12T15:50:11;5.93;;;2.38;;
50429;SDS011;36359;41.556;-8.418;2022-09-12T15:52:37;7.88;;;2.92;;
50429;SDS011;36359;41.556;-8.418;2022-09-12T15:55:04;7.85;;;2.72;;
50429;SDS011;36359;41.556;-8.418;2022-09-12T15:57:40;5.00;;;3.22;;
50429;SDS011;36359;41.556;-8.418;2022-09-12T16:00:07;7.57;;;3.35;;
50429;SDS011;36359;41.556;-8.418;2022-09-12T16:02:37;9.57;;;2.80;;
50429;SDS011;36359;41.556;-8.418;2022-09-12T16:05:02;10.00;;;3.17;;
50429;SDS011;36359;41.556;-8.418;2022-09-12T16:07:29;9.32;;;3.15;;
50429;SDS011;36359;41.556;-8.418;2022-09-12T16:09:55;4.82;;;2.67;;
50429;SDS011;36359;41.556;-8.418;2022-09-12T16:12:21;8.38;;;3.47;;
50429;SDS011;36359;41.556;-8.418;2022-09-12T16:14:47;7.15;;;3.67;;
50429;SDS011;36359;41.556;-8.418;2022-09-12T16:17:12;8.18;;;2.72;;
50429;SDS011;36359;41.556;-8.418;2022-09-12T16:22:26;7.78;;;4.40;;
50429;SDS011;36359;41.556;-8.418;2022-09-12T16:24:52;10.50;;;5.82;;
50429;SDS011;36359;41.556;-8.418;2022-09-12T16:27:17;13.18;;;7.05;;
50429;SDS011;36359;41.556;-8.418;2022-09-12T16:29:43;21.33;;;10.88;;
50429;SDS011;36359;41.556;-8.418;2022-09-12T16:32:09;21.50;;;13.43;;
50429;SDS011;36359;41.556;-8.418;2022-09-12T16:34:35;36.92;;;22.52;;
50429;SDS011;36359;41.556;-8.418;2022-09-12T16:37:01;40.72;;;20.75;;
50429;SDS011;36359;41.556;-8.418;2022-09-12T16:39:27;34.03;;;19.90;;
50429;SDS011;36359;41.556;-8.418;2022-09-12T16:41:52;28.80;;;15.95;;
50429;SDS011;36359;41.556;-8.418;2022-09-12T16:44:18;14.75;;;7.97;;
50429;SDS011;36359;41.556;-8.418;2022-09-12T16:46:44;11.07;;;6.55;;
50429;SDS011;36359;41.556;-8.418;2022-09-12T16:49:10;10.45;;;5.82;;
50429;SDS011;36359;41.556;-8.418;2022-09-12T16:51:36;11.80;;;6.38;;
50429;SDS011;36359;41.556;-8.418;2022-09-12T16:54:02;9.70;;;5.57;;
50429;SDS011;36359;41.556;-8.418;2022-09-12T16:56:28;9.45;;;4.93;;
50429;SDS011;36359;41.556;-8.418;2022-09-12T16:58:53;8.25;;;4.90;;
50429;SDS011;36359;41.556;-8.418;2022-09-12T17:01:20;9.55;;;4.72;;
50429;SDS011;36359;41.556;-8.418;2022-09-12T17:03:51;10.30;;;5.82;;
50429;SDS011;36359;41.556;-8.418;2022-09-12T17:06:21;13.27;;;3.13;;
50429;SDS011;36359;41.556;-8.418;2022-09-12T17:08:50;8.27;;;4.35;;
50429;SDS011;36359;41.556;-8.418;2022-09-12T17:11:22;7.40;;;3.40;;
50429;SDS011;36359;41.556;-8.418;2022-09-12T17:13:50;7.70;;;1.95;;
50429;SDS011;36359;41.556;-8.418;2022-09-12T17:18:46;8.55;;;3.28;;
50429;SDS011;36359;41.556;-8.418;2022-09-12T17:21:12;6.18;;;2.47;;
50429;SDS011;36359;41.556;-8.418;2022-09-12T17:23:38;4.00;;;1.98;;
50429;SDS011;36359;41.556;-8.418;2022-09-12T17:26:05;3.22;;;0.98;;
50429;SDS011;36359;41.556;-8.418;2022-09-12T17:28:31;4.55;;;1.80;;
50429;SDS011;36359;41.556;-8.418;2022-09-12T17:31:07;5.53;;;1.60;;
50429;SDS011;36359;41.556;-8.418;2022-09-12T17:33:35;4.03;;;1.38;;
50429;SDS011;36359;41.556;-8.418;2022-09-12T17:36:02;5.45;;;2.40;;
50429;SDS011;36359;41.556;-8.418;2022-09-12T17:38:31;3.50;;;1.40;;
50429;SDS011;36359;41.556;-8.418;2022-09-12T17:41:18;4.53;;;1.73;;
50429;SDS011;36359;41.556;-8.418;2022-09-12T17:43:49;7.07;;;2.03;;
50429;SDS011;36359;41.556;-8.418;2022-09-12T17:46:17;5.60;;;2.08;;
50429;SDS011;36359;41.556;-8.418;2022-09-12T17:48:43;6.43;;;2.45;;
50429;SDS011;36359;41.556;-8.418;2022-09-12T17:51:10;3.92;;;1.63;;
50429;SDS011;36359;41.556;-8.418;2022-09-12T17:53:38;2.60;;;1.17;;
50429;SDS011;36359;41.556;-8.418;2022-09-12T17:56:05;3.10;;;1.40;;
50429;SDS011;36359;41.556;-8.418;2022-09-12T17:58:32;3.35;;;1.27;;
50429;SDS011;36359;41.556;-8.418;2022-09-12T18:01:02;2.22;;;1.50;;
50429;SDS011;36359;41.556;-8.418;2022-09-12T18:03:48;5.20;;;1.88;;
50429;SDS011;36359;41.556;-8.418;2022-09-12T18:06:16;4.55;;;1.58;;
50429;SDS011;36359;41.556;-8.418;2022-09-12T18:08:41;3.60;;;1.92;;
50429;SDS011;36359;41.556;-8.418;2022-09-12T18:11:07;5.40;;;1.63;;
50429;SDS011;36359;41.556;-8.418;2022-09-12T18:13:33;4.50;;;2.30;;
50429;SDS011;36359;41.556;-8.418;2022-09-12T18:16:06;6.10;;;1.63;;
50429;SDS011;36359;41.556;-8.418;2022-09-12T18:18:33;4.60;;;1.40;;